Time;durP1;ratioP1;P1;durP2;ratioP2;P2;SDS_P1;SDS_P2;PMS_P1;PMS_P2;Temp;Humidity;BMP_temperature;BMP_pressure;BME280_temperature;BME280_humidity;BME280_pressure;Samples;Min_cycle;Max_cycle;Signal;HPM_P1;HPM_P2
2022/01/25 00:08:26;;;;;;;24.30;18.43;;;3.50;99.90;;;;;;5075666;28;20243;-64
2022/01/25 00:24:53;;;;;;;21.47;17.80;;;3.70;99.90;;;;;;5075404;28;20169;-63
2022/01/25 00:32:06;;;;;;;27.00;16.57;;;3.70;99.90;;;;;;5075463;28;20174;-64
2022/01/25 00:34:32;;;;;;;23.50;17.07;;;3.70;99.90;;;;;;5075091;28;20166;-63
2022/01/25 00:36:58;;;;;;;21.17;17.83;;;3.70;99.90;;;;;;5075031;28;20251;-63
2022/01/25 00:39:24;;;;;;;26.67;19.03;;;3.70;99.90;;;;;;5075673;28;20169;-63
2022/01/25 00:41:49;;;;;;;28.87;18.80;;;3.70;99.90;;;;;;5074887;28;20181;-64
2022/01/25 00:44:16;;;;;;;24.03;17.87;;;3.70;99.90;;;;;;5074875;28;20248;-63
2022/01/25 00:46:42;;;;;;;25.53;17.97;;;3.70;99.90;;;;;;5073404;28;20233;-63
2022/01/25 00:49:09;;;;;;;26.13;17.07;;;3.70;99.90;;;;;;5074761;28;20243;-64
2022/01/25 00:54:13;;;;;;;24.73;18.63;;;3.70;99.90;;;;;;5074649;28;20174;-64
2022/01/25 00:56:47;;;;;;;23.87;18.17;;;3.60;99.90;;;;;;5074526;28;20593;-64
2022/01/25 00:59:22;;;;;;;23.07;17.13;;;3.60;99.90;;;;;;5074916;28;20173;-64
2022/01/25 01:01:51;;;;;;;22.00;16.93;;;3.60;99.90;;;;;;5073299;28;20261;-63
2022/01/25 01:04:18;;;;;;;25.03;18.23;;;3.60;99.90;;;;;;5073331;28;20268;-64
2022/01/25 01:06:46;;;;;;;26.37;17.97;;;3.60;99.90;;;;;;5073048;28;20209;-63
2022/01/25 01:09:14;;;;;;;24.67;17.77;;;3.60;99.90;;;;;;5074416;28;20173;-63
2022/01/25 01:11:54;;;;;;;25.10;17.50;;;3.70;99.90;;;;;;5074375;28;20204;-64
2022/01/25 01:39:43;;;;;;;29.70;19.00;;;3.50;99.90;;;;;;5074184;28;20245;-63
2022/01/25 01:43:52;;;;;;;24.57;17.13;;;3.60;99.90;;;;;;5073702;28;20174;-64
2022/01/25 01:48:56;;;;;;;25.70;17.60;;;3.60;99.90;;;;;;5074012;28;20173;-64
2022/01/25 01:51:32;;;;;;;27.13;17.73;;;3.60;99.90;;;;;;5073683;28;20558;-63
2022/01/25 01:54:08;;;;;;;29.33;19.07;;;3.60;99.90;;;;;;5073926;28;20580;-63
2022/01/25 01:56:34;;;;;;;25.80;16.73;;;3.70;99.90;;;;;;5073625;28;20193;-64
2022/01/25 01:59:03;;;;;;;25.40;18.47;;;3.60;99.90;;;;;;5073929;28;20174;-63
2022/01/25 02:01:30;;;;;;;31.10;19.77;;;3.60;99.90;;;;;;5073425;28;20176;-64
2022/01/25 02:03:59;;;;;;;29.13;19.87;;;3.60;99.90;;;;;;5073451;28;20177;-63
2022/01/25 02:06:25;;;;;;;27.40;19.70;;;3.60;99.90;;;;;;5073462;28;20213;-63
2022/01/25 02:08:51;;;;;;;25.97;19.20;;;3.50;99.90;;;;;;5073828;28;20252;-64
2022/01/25 02:11:17;;;;;;;27.77;18.30;;;3.40;99.90;;;;;;5073441;28;20701;-64
2022/01/25 02:13:43;;;;;;;32.57;19.97;;;3.40;99.90;;;;;;5073696;28;20623;-63
2022/01/25 02:16:18;;;;;;;28.87;20.27;;;3.30;99.90;;;;;;5073271;28;20186;-65
2022/01/25 02:24:12;;;;;;;29.43;19.07;;;3.30;99.90;;;;;;5073660;28;20645;-63
2022/01/25 02:26:38;;;;;;;26.27;18.27;;;3.30;99.90;;;;;;5071885;28;20226;-64
2022/01/25 02:29:04;;;;;;;29.43;18.93;;;3.40;99.90;;;;;;5073294;28;20699;-64
2022/01/25 02:31:30;;;;;;;29.47;19.87;;;3.40;99.90;;;;;;5073219;28;20515;-64
2022/01/25 02:33:56;;;;;;;25.77;18.77;;;3.30;99.90;;;;;;5077490;28;20173;-63
2022/01/25 02:36:27;;;;;;;30.17;20.70;;;3.40;99.90;;;;;;5077492;28;20193;-64
2022/01/25 02:38:56;;;;;;;29.40;19.93;;;3.40;99.90;;;;;;5077287;28;20233;-64
2022/01/25 02:41:22;;;;;;;34.40;19.67;;;3.40;99.90;;;;;;5077452;28;20246;-64
2022/01/25 02:43:49;;;;;;;29.57;19.53;;;3.40;99.90;;;;;;5075942;28;20173;-63
2022/01/25 02:48:51;;;;;;;29.57;19.73;;;3.40;99.90;;;;;;5077062;28;20170;-63
2022/01/25 02:51:18;;;;;;;30.30;19.37;;;3.50;99.90;;;;;;5077371;28;20642;-64
2022/01/25 02:53:44;;;;;;;30.93;19.63;;;3.50;99.90;;;;;;5077076;28;20170;-64
2022/01/25 02:56:10;;;;;;;33.77;21.13;;;3.50;99.90;;;;;;5077282;28;20193;-64
2022/01/25 02:58:35;;;;;;;33.70;20.27;;;3.40;99.90;;;;;;5077418;28;20530;-63
2022/01/25 03:01:01;;;;;;;36.97;21.57;;;3.40;99.90;;;;;;5076924;28;20681;-63
2022/01/25 03:03:27;;;;;;;32.67;20.00;;;3.40;99.90;;;;;;5076958;28;20174;-64
2022/01/25 03:05:53;;;;;;;26.67;19.37;;;3.40;99.90;;;;;;5076942;28;20174;-64
2022/01/25 03:08:19;;;;;;;31.53;20.40;;;3.40;99.90;;;;;;5076870;28;20280;-64
2022/01/25 03:10:46;;;;;;;28.43;19.63;;;3.40;99.90;;;;;;5075489;28;20269;-64
2022/01/25 03:13:20;;;;;;;28.97;18.90;;;3.50;99.90;;;;;;5076694;28;20173;-64
2022/01/25 03:21:54;;;;;;;31.67;19.60;;;3.50;99.90;;;;;;5076243;28;20193;-63
2022/01/25 03:24:03;;;;;;;31.17;19.87;;;3.50;99.90;;;;;;5073629;28;20212;-63
2022/01/25 03:26:29;;;;;;;31.27;19.23;;;3.40;99.90;;;;;;5076218;28;20254;-63
2022/01/25 03:28:55;;;;;;;33.67;20.50;;;3.40;99.90;;;;;;5075103;28;20173;-63
2022/01/25 03:31:22;;;;;;;26.53;18.10;;;3.40;99.90;;;;;;5075202;28;20580;-63
2022/01/25 03:33:48;;;;;;;28.33;18.03;;;3.40;99.90;;;;;;5076524;28;20201;-64
2022/01/25 03:36:14;;;;;;;31.40;19.83;;;3.40;99.90;;;;;;5076204;28;20663;-64
2022/01/25 03:38:41;;;;;;;29.50;19.13;;;3.40;99.90;;;;;;5076481;28;20260;-64
2022/01/25 03:41:09;;;;;;;29.87;18.67;;;3.40;99.90;;;;;;5076312;28;20175;-63
2022/01/25 03:43:36;;;;;;;27.07;18.33;;;3.40;99.90;;;;;;5075652;28;20174;-64
2022/01/25 03:46:11;;;;;;;31.70;18.57;;;3.50;99.90;;;;;;5076233;28;20211;-63
2022/01/25 03:51:21;;;;;;;28.87;19.33;;;3.50;99.90;;;;;;5076365;28;20161;-63
2022/01/25 03:53:47;;;;;;;30.83;18.40;;;3.40;99.90;;;;;;5076415;28;20170;-63
2022/01/25 03:56:13;;;;;;;28.60;19.33;;;3.40;99.90;;;;;;5076399;28;20206;-63
2022/01/25 03:58:38;;;;;;;32.03;20.27;;;3.30;99.90;;;;;;5075834;28;20177;-63
2022/01/25 04:01:04;;;;;;;29.90;19.77;;;3.20;99.90;;;;;;5075800;28;20177;-63
2022/01/25 04:03:37;;;;;;;31.73;20.57;;;3.10;99.90;;;;;;5075737;28;20198;-63
2022/01/25 04:06:04;;;;;;;32.03;19.97;;;3.10;99.90;;;;;;5076114;28;20168;-63
2022/01/25 04:08:29;;;;;;;30.50;19.33;;;3.00;99.90;;;;;;5075914;28;20193;-63
2022/01/25 04:10:55;;;;;;;31.77;19.57;;;3.00;99.90;;;;;;5074326;28;20702;-63
2022/01/25 04:13:21;;;;;;;32.50;20.10;;;2.90;99.90;;;;;;5075491;28;20174;-63
2022/01/25 04:15:48;;;;;;;31.30;19.63;;;2.90;99.90;;;;;;5075989;28;20170;-64
2022/01/25 04:20:54;;;;;;;34.33;21.30;;;2.80;99.90;;;;;;5075723;28;20182;-63
2022/01/25 04:26:04;;;;;;;30.07;19.50;;;2.90;99.90;;;;;;5075432;28;20224;-63
2022/01/25 04:28:30;;;;;;;30.40;19.17;;;3.00;99.90;;;;;;5075695;28;20194;-63
2022/01/25 04:30:55;;;;;;;34.20;20.60;;;3.00;99.90;;;;;;5075556;28;20173;-64
2022/01/25 04:33:25;;;;;;;31.20;19.80;;;3.10;99.90;;;;;;5073932;28;20328;-63
2022/01/25 04:36:12;;;;;;;31.43;19.60;;;3.10;99.90;;;;;;5075266;28;20721;-63
2022/01/25 04:49:39;;;;;;;27.13;18.63;;;3.20;99.90;;;;;;5075011;28;20189;-63
2022/01/25 04:52:13;;;;;;;32.13;19.37;;;3.20;99.90;;;;;;5075016;28;20161;-64
2022/01/25 04:55:05;;;;;;;30.93;19.40;;;3.20;99.90;;;;;;5074721;28;20154;-63
2022/01/25 05:00:05;;;;;;;27.37;18.93;;;3.20;99.90;;;;;;5074984;28;20702;-64
2022/01/25 05:05:10;;;;;;;31.07;20.00;;;3.30;99.90;;;;;;5074773;28;20212;-65
2022/01/25 05:07:50;;;;;;;28.43;18.60;;;3.30;99.90;;;;;;5074905;28;20268;-62
2022/01/25 05:10:16;;;;;;;26.77;17.53;;;3.30;99.90;;;;;;5074493;28;20151;-63
2022/01/25 05:12:51;;;;;;;30.60;19.70;;;3.30;99.90;;;;;;5074324;28;20174;-63
2022/01/25 05:15:27;;;;;;;34.07;18.77;;;3.20;99.90;;;;;;5074552;28;20157;-64
2022/01/25 05:18:38;;;;;;;27.27;17.67;;;3.20;99.90;;;;;;5075019;28;20243;-66
2022/01/25 05:23:30;;;;;;;28.43;19.27;;;3.20;99.90;;;;;;5074527;28;20680;-67
2022/01/25 05:25:55;;;;;;;29.53;18.10;;;3.20;99.90;;;;;;5072587;28;20557;-67
2022/01/25 05:28:21;;;;;;;27.93;18.43;;;3.30;99.90;;;;;;5073916;28;20185;-67
2022/01/25 05:30:47;;;;;;;28.47;18.40;;;3.20;99.90;;;;;;5074269;28;20554;-66
2022/01/25 05:33:13;;;;;;;32.60;19.13;;;3.20;99.90;;;;;;5074134;28;20174;-66
2022/01/25 05:35:39;;;;;;;30.70;19.17;;;3.10;99.90;;;;;;5074221;28;20629;-66
2022/01/25 05:38:05;;;;;;;29.50;19.07;;;3.10;99.90;;;;;;5074033;28;20194;-66
2022/01/25 05:40:46;;;;;;;26.63;17.53;;;3.00;99.90;;;;;;5074135;28;20306;-66
2022/01/25 05:48:12;;;;;;;29.80;18.80;;;3.10;99.90;;;;;;5073989;28;20712;-67
2022/01/25 05:50:38;;;;;;;28.00;18.33;;;3.10;99.90;;;;;;5073719;28;20180;-66
2022/01/25 05:53:03;;;;;;;25.93;16.87;;;3.10;99.90;;;;;;5074361;28;20154;-67
2022/01/25 05:55:29;;;;;;;30.77;17.90;;;3.10;99.90;;;;;;5073595;28;20626;-66
2022/01/25 05:57:55;;;;;;;25.17;17.43;;;3.10;99.90;;;;;;5073548;28;20658;-66
2022/01/25 06:00:21;;;;;;;25.93;16.70;;;3.10;99.90;;;;;;5073514;28;20173;-66
2022/01/25 06:02:52;;;;;;;33.10;18.97;;;3.10;99.90;;;;;;5072255;28;20239;-66
2022/01/25 06:05:18;;;;;;;30.37;17.67;;;3.10;99.90;;;;;;5073569;28;20158;-66
2022/01/25 06:07:44;;;;;;;30.07;19.20;;;3.20;99.90;;;;;;5072980;28;20194;-66
2022/01/25 06:10:10;;;;;;;31.03;18.30;;;3.10;99.90;;;;;;5073405;28;20597;-66
2022/01/25 06:12:35;;;;;;;28.57;19.47;;;3.10;99.90;;;;;;5073451;28;20170;-66
2022/01/25 06:15:01;;;;;;;31.27;18.63;;;3.10;99.90;;;;;;5073854;28;20627;-66
2022/01/25 06:17:27;;;;;;;29.90;18.60;;;3.10;99.90;;;;;;5073252;28;20273;-66
2022/01/25 06:19:53;;;;;;;30.07;19.33;;;3.10;99.90;;;;;;5073235;28;20178;-66
2022/01/25 06:22:19;;;;;;;29.00;18.60;;;3.10;99.90;;;;;;5073392;28;20219;-67
2022/01/25 06:24:44;;;;;;;27.60;18.57;;;3.20;99.90;;;;;;5073602;28;20265;-66
2022/01/25 06:27:10;;;;;;;30.53;18.97;;;3.10;99.90;;;;;;5071695;28;20708;-66
2022/01/25 06:29:37;;;;;;;31.73;19.60;;;3.20;99.90;;;;;;5073787;28;20204;-66
2022/01/25 06:32:03;;;;;;;30.73;19.60;;;3.10;99.90;;;;;;5073155;28;20173;-66
2022/01/25 06:34:29;;;;;;;29.70;18.53;;;3.00;99.90;;;;;;5073785;28;20207;-66
2022/01/25 06:36:54;;;;;;;32.77;19.13;;;3.00;99.90;;;;;;5073123;28;20197;-67
2022/01/25 06:39:20;;;;;;;33.23;19.03;;;3.00;99.90;;;;;;5073518;28;20239;-66
2022/01/25 06:41:47;;;;;;;31.10;19.07;;;3.00;99.90;;;;;;5073603;28;20162;-66
2022/01/25 06:44:13;;;;;;;29.37;18.20;;;3.00;99.90;;;;;;5073430;28;20613;-66
2022/01/25 06:46:38;;;;;;;30.73;18.13;;;3.00;99.90;;;;;;5073097;28;20224;-65
2022/01/25 06:49:04;;;;;;;30.70;18.77;;;3.00;99.90;;;;;;5073247;28;20542;-65
2022/01/25 06:51:31;;;;;;;27.77;18.20;;;3.00;99.90;;;;;;5072953;28;20257;-65
2022/01/25 06:53:56;;;;;;;30.27;20.23;;;3.00;99.90;;;;;;5073291;28;20166;-65
2022/01/25 06:56:22;;;;;;;28.13;17.90;;;3.00;99.90;;;;;;5073033;28;20250;-65
2022/01/25 06:58:48;;;;;;;32.73;18.63;;;3.10;99.90;;;;;;5072869;28;20177;-66
2022/01/25 07:01:14;;;;;;;30.20;20.07;;;3.10;99.90;;;;;;5073455;28;20186;-67
2022/01/25 07:03:39;;;;;;;33.63;20.60;;;3.00;99.90;;;;;;5072846;28;20185;-65
2022/01/25 07:06:05;;;;;;;32.90;20.97;;;3.00;99.90;;;;;;5072748;28;20181;-66
2022/01/25 07:08:31;;;;;;;38.53;22.13;;;2.90;99.90;;;;;;5073012;28;20297;-66
2022/01/25 07:10:57;;;;;;;33.17;19.80;;;2.90;99.90;;;;;;5073253;28;20235;-64
2022/01/25 07:13:23;;;;;;;29.27;18.07;;;2.90;99.90;;;;;;5071507;28;20528;-63
2022/01/25 07:15:48;;;;;;;27.30;18.20;;;2.90;99.90;;;;;;5071330;28;20178;-63
2022/01/25 07:18:15;;;;;;;35.23;18.63;;;2.90;99.90;;;;;;5072996;28;20192;-63
2022/01/25 07:20:41;;;;;;;31.97;19.50;;;2.90;99.90;;;;;;5076151;28;20195;-63
2022/01/25 07:23:07;;;;;;;33.00;19.97;;;2.90;99.90;;;;;;5076897;28;20174;-63
2022/01/25 07:25:32;;;;;;;35.80;21.03;;;2.90;99.90;;;;;;5076355;28;20186;-63
2022/01/25 07:27:59;;;;;;;36.30;20.73;;;2.90;99.90;;;;;;5076604;28;20225;-63
2022/01/25 07:30:25;;;;;;;33.70;19.73;;;3.00;99.90;;;;;;5076279;28;20177;-63
2022/01/25 07:32:50;;;;;;;32.03;19.83;;;3.00;99.90;;;;;;5076530;28;20223;-63
2022/01/25 07:35:16;;;;;;;33.40;20.63;;;3.00;99.90;;;;;;5074936;28;20307;-63
2022/01/25 07:37:42;;;;;;;35.40;21.07;;;3.00;99.90;;;;;;5076393;28;20233;-63
2022/01/25 07:40:10;;;;;;;37.77;21.00;;;3.00;99.90;;;;;;5076341;28;20254;-63
2022/01/25 07:42:39;;;;;;;35.07;21.13;;;2.90;99.90;;;;;;5074864;28;20185;-63
2022/01/25 07:45:08;;;;;;;36.53;20.20;;;2.80;99.90;;;;;;5074748;28;20538;-63
2022/01/25 07:47:36;;;;;;;35.63;21.10;;;2.70;99.90;;;;;;5076958;28;20217;-63
2022/01/25 07:50:04;;;;;;;39.77;22.27;;;2.70;99.90;;;;;;5076300;28;20158;-64
2022/01/25 07:52:29;;;;;;;32.17;20.30;;;2.80;99.90;;;;;;5076006;28;20158;-63
2022/01/25 07:54:55;;;;;;;34.33;20.53;;;2.80;99.90;;;;;;5075958;28;20263;-64
2022/01/25 07:57:21;;;;;;;36.77;20.93;;;2.90;99.90;;;;;;5076558;28;20204;-64
2022/01/25 07:59:47;;;;;;;32.90;20.37;;;2.90;99.90;;;;;;5074571;28;20181;-63
2022/01/25 08:02:16;;;;;;;38.67;20.93;;;2.90;99.90;;;;;;5076127;28;20169;-64
2022/01/25 08:04:42;;;;;;;31.33;19.30;;;2.90;99.90;;;;;;5076089;28;20596;-63
2022/01/25 08:07:08;;;;;;;30.10;18.57;;;3.00;99.90;;;;;;5074613;28;20296;-63
2022/01/25 08:09:34;;;;;;;32.77;18.90;;;3.00;99.90;;;;;;5075991;28;20154;-63
2022/01/25 08:12:00;;;;;;;35.33;20.00;;;3.00;99.90;;;;;;5075629;28;20303;-63
2022/01/25 08:14:26;;;;;;;29.60;18.80;;;3.00;99.90;;;;;;5075588;28;20697;-64
2022/01/25 08:16:52;;;;;;;35.90;20.37;;;3.00;99.90;;;;;;5076205;28;20250;-63
2022/01/25 08:19:19;;;;;;;32.53;19.60;;;3.00;99.90;;;;;;5075786;28;20166;-63
2022/01/25 08:21:47;;;;;;;31.90;19.27;;;3.00;99.90;;;;;;5075983;28;20166;-64
2022/01/25 08:24:14;;;;;;;33.00;18.63;;;3.00;99.90;;;;;;5077526;28;20170;-65
2022/01/25 08:26:43;;;;;;;30.20;18.13;;;3.00;99.90;;;;;;5075735;28;20670;-63
2022/01/25 08:29:09;;;;;;;33.23;19.30;;;3.00;99.90;;;;;;5076946;28;20687;-64
2022/01/25 08:31:35;;;;;;;31.57;18.27;;;3.00;99.90;;;;;;5076471;28;20162;-66
2022/01/25 08:34:01;;;;;;;32.83;20.67;;;3.00;99.90;;;;;;5075942;28;20174;-64
2022/01/25 08:36:27;;;;;;;35.03;20.80;;;3.00;99.90;;;;;;5076175;28;20728;-65
2022/01/25 08:38:54;;;;;;;34.33;19.20;;;3.00;99.90;;;;;;5075055;28;20177;-65
2022/01/25 08:41:20;;;;;;;30.70;19.40;;;3.00;99.90;;;;;;5075219;28;20685;-64
2022/01/25 08:43:47;;;;;;;31.47;19.07;;;2.80;99.90;;;;;;5074931;28;20661;-65
2022/01/25 08:46:14;;;;;;;33.37;19.43;;;2.70;99.90;;;;;;5074852;28;20621;-65
2022/01/25 08:48:39;;;;;;;35.67;20.47;;;2.70;99.90;;;;;;5074730;28;20246;-64
2022/01/25 08:51:06;;;;;;;35.93;20.50;;;2.70;99.90;;;;;;5075051;28;20174;-64
2022/01/25 08:53:33;;;;;;;32.93;19.90;;;2.70;99.90;;;;;;5073472;28;20318;-65
2022/01/25 08:55:59;;;;;;;36.17;22.10;;;2.80;99.90;;;;;;5074647;28;20533;-64
2022/01/25 08:58:26;;;;;;;33.77;20.00;;;2.90;99.90;;;;;;5074673;28;20177;-64
2022/01/25 09:00:53;;;;;;;36.93;20.43;;;2.90;99.90;;;;;;5074649;28;20216;-65
2022/01/25 09:03:18;;;;;;;38.03;19.70;;;3.00;99.90;;;;;;5074871;28;20177;-63
2022/01/25 09:05:44;;;;;;;35.37;20.03;;;3.00;99.90;;;;;;5074525;28;20189;-63
2022/01/25 09:08:16;;;;;;;36.23;20.40;;;3.10;99.90;;;;;;5074979;28;20212;-63
2022/01/25 09:10:42;;;;;;;31.63;19.17;;;3.10;99.90;;;;;;5074469;28;20154;-63
2022/01/25 09:13:07;;;;;;;35.67;20.33;;;3.10;99.90;;;;;;5074625;28;20166;-63
2022/01/25 09:15:33;;;;;;;40.27;21.97;;;3.10;99.90;;;;;;5074409;28;20162;-63
2022/01/25 09:17:59;;;;;;;32.27;18.43;;;3.10;99.90;;;;;;5074203;28;20607;-64
2022/01/25 09:20:25;;;;;;;33.50;19.13;;;3.00;99.90;;;;;;5074279;28;20194;-63
2022/01/25 09:22:51;;;;;;;31.57;18.03;;;3.00;99.90;;;;;;5075127;28;20592;-63
2022/01/25 09:25:18;;;;;;;30.93;18.33;;;3.00;99.90;;;;;;5074463;28;20249;-63
2022/01/25 09:27:44;;;;;;;36.40;18.53;;;3.00;99.90;;;;;;5073910;28;20213;-63
2022/01/25 09:30:10;;;;;;;28.40;18.80;;;3.00;99.90;;;;;;5072841;28;20178;-63
2022/01/25 09:32:36;;;;;;;34.07;19.53;;;3.00;99.90;;;;;;5074303;28;20202;-63
2022/01/25 09:35:02;;;;;;;32.47;18.67;;;3.10;99.90;;;;;;5073975;28;20185;-63
2022/01/25 09:37:28;;;;;;;34.23;19.13;;;3.10;99.90;;;;;;5073830;28;20212;-63
2022/01/25 09:39:54;;;;;;;31.17;19.43;;;3.10;99.90;;;;;;5073918;28;20177;-64
2022/01/25 09:42:20;;;;;;;32.87;19.47;;;3.10;99.90;;;;;;5073281;28;20177;-64
2022/01/25 09:44:48;;;;;;;34.20;19.53;;;3.00;99.90;;;;;;5074127;28;20174;-63
2022/01/25 09:47:14;;;;;;;31.10;18.13;;;3.10;99.90;;;;;;5073766;28;20285;-64
2022/01/25 09:49:40;;;;;;;31.80;19.10;;;3.00;99.90;;;;;;5074038;28;20158;-64
2022/01/25 09:52:07;;;;;;;34.03;18.77;;;3.10;99.90;;;;;;5074244;28;20177;-64
2022/01/25 09:54:35;;;;;;;34.27;18.23;;;3.10;99.90;;;;;;5073960;28;20610;-64
2022/01/25 09:57:03;;;;;;;31.23;18.37;;;3.10;99.90;;;;;;5073598;28;20202;-64
2022/01/25 09:59:29;;;;;;;32.07;18.03;;;3.10;99.90;;;;;;5073571;28;20180;-63
2022/01/25 10:01:56;;;;;;;31.07;17.40;;;3.20;99.90;;;;;;5072321;28;20213;-66
2022/01/25 10:04:38;;;;;;;34.20;18.63;;;3.20;99.90;;;;;;5072235;28;20194;-66
2022/01/25 10:07:05;;;;;;;26.03;16.63;;;3.10;99.90;;;;;;5073814;28;20197;-66
2022/01/25 10:09:32;;;;;;;26.90;16.07;;;3.20;99.90;;;;;;5072210;28;20174;-67
2022/01/25 10:12:16;;;;;;;31.07;17.63;;;3.20;99.90;;;;;;5073637;28;20174;-63
2022/01/25 10:15:12;;;;;;;29.10;16.70;;;3.20;99.90;;;;;;5074539;28;20186;-64
2022/01/25 10:17:41;;;;;;;30.33;18.10;;;3.10;99.90;;;;;;5073401;28;20218;-67
2022/01/25 10:20:43;;;;;;;29.70;17.83;;;3.10;99.90;;;;;;5073622;28;20163;-66
2022/01/25 10:23:24;;;;;;;32.07;18.47;;;3.10;99.90;;;;;;5073046;28;20225;-67
2022/01/25 10:25:50;;;;;;;32.30;18.03;;;3.10;99.90;;;;;;5073352;28;20162;-66
2022/01/25 10:28:23;;;;;;;28.80;16.27;;;3.10;99.90;;;;;;5073277;28;20581;-67
2022/01/25 10:30:58;;;;;;;31.40;16.50;;;3.10;99.90;;;;;;5072714;28;20170;-66
2022/01/25 10:33:34;;;;;;;27.23;15.93;;;3.10;99.90;;;;;;5073318;28;20193;-67
2022/01/25 10:36:19;;;;;;;27.57;15.83;;;3.10;99.90;;;;;;5073246;28;20153;-67
2022/01/25 10:38:48;;;;;;;25.97;16.47;;;3.10;99.90;;;;;;5073543;28;20614;-66
2022/01/25 10:41:27;;;;;;;29.27;16.83;;;3.10;99.90;;;;;;5073165;28;20319;-66
2022/01/25 10:43:55;;;;;;;31.73;15.63;;;3.00;99.90;;;;;;5072075;28;20174;-67
2022/01/25 10:46:29;;;;;;;25.07;14.70;;;3.00;99.90;;;;;;5073224;28;20196;-67
2022/01/25 10:49:10;;;;;;;24.27;14.73;;;3.10;99.90;;;;;;5073325;28;20190;-66
2022/01/25 10:51:41;;;;;;;26.30;15.30;;;3.10;99.90;;;;;;5071915;28;20174;-66
2022/01/25 10:54:08;;;;;;;24.93;15.97;;;3.10;99.90;;;;;;5072858;28;20186;-67
2022/01/25 10:56:38;;;;;;;27.57;15.70;;;3.10;99.90;;;;;;5077021;28;20201;-67
2022/01/25 10:59:07;;;;;;;24.47;14.20;;;3.10;99.90;;;;;;5075688;28;20610;-66
2022/01/25 11:01:39;;;;;;;26.73;15.40;;;3.00;99.90;;;;;;5076873;28;20162;-66
2022/01/25 11:04:10;;;;;;;24.93;15.30;;;3.00;99.90;;;;;;5076996;28;20174;-66
2022/01/25 11:06:37;;;;;;;26.30;15.20;;;2.90;99.90;;;;;;5075807;28;20623;-67
2022/01/25 11:09:06;;;;;;;23.73;15.03;;;3.00;99.90;;;;;;5077124;28;20166;-67
2022/01/25 11:11:37;;;;;;;25.20;14.80;;;2.90;99.90;;;;;;5075603;28;20184;-67
2022/01/25 11:16:52;;;;;;;25.90;14.67;;;3.00;99.90;;;;;;5077225;28;20212;-67
2022/01/25 11:19:18;;;;;;;26.77;16.47;;;3.00;99.90;;;;;;5076727;28;20212;-66
2022/01/25 11:21:45;;;;;;;25.83;15.33;;;3.00;99.90;;;;;;5076657;28;20168;-67
2022/01/25 11:24:15;;;;;;;23.00;14.80;;;3.10;99.90;;;;;;5076780;28;20178;-67
2022/01/25 11:26:45;;;;;;;22.93;13.77;;;3.10;99.90;;;;;;5076820;28;20241;-67
2022/01/25 11:29:11;;;;;;;23.60;14.37;;;3.10;99.90;;;;;;5076525;28;20189;-66
2022/01/25 11:31:42;;;;;;;25.13;14.63;;;3.10;99.90;;;;;;5077727;28;20166;-67
2022/01/25 11:34:12;;;;;;;24.20;15.40;;;3.10;99.90;;;;;;5077826;28;20661;-66
2022/01/25 11:36:59;;;;;;;25.20;14.97;;;3.10;99.90;;;;;;5077459;28;20194;-66
2022/01/25 11:39:29;;;;;;;22.20;15.33;;;3.10;99.90;;;;;;5078592;28;20166;-66
2022/01/25 11:42:24;;;;;;;23.07;14.57;;;3.10;99.90;;;;;;5077591;28;20170;-67
2022/01/25 11:44:56;;;;;;;24.27;14.73;;;3.00;99.90;;;;;;5076454;28;20198;-66
2022/01/25 11:47:31;;;;;;;24.83;14.67;;;3.10;99.90;;;;;;5076280;28;20202;-66
2022/01/25 11:50:06;;;;;;;21.83;13.50;;;3.10;99.90;;;;;;5076293;28;20192;-66
2022/01/25 11:52:32;;;;;;;24.93;14.10;;;3.10;99.90;;;;;;5076349;28;20164;-66
2022/01/25 11:55:20;;;;;;;23.77;14.20;;;3.10;99.90;;;;;;5076073;28;20182;-67
2022/01/25 11:58:11;;;;;;;22.17;13.63;;;3.10;99.90;;;;;;5076973;28;20276;-67
2022/01/25 12:00:45;;;;;;;23.00;12.77;;;3.10;99.90;;;;;;5075590;28;20204;-67
2022/01/25 12:03:40;;;;;;;18.67;13.23;;;3.10;99.90;;;;;;5076499;28;20169;-67
2022/01/25 12:06:14;;;;;;;22.83;13.83;;;3.10;99.90;;;;;;5075210;28;20197;-67
2022/01/25 12:08:54;;;;;;;19.57;13.03;;;3.10;99.90;;;;;;5076122;28;20221;-67
2022/01/25 12:11:49;;;;;;;23.57;13.80;;;3.20;99.90;;;;;;5074651;28;20622;-66
2022/01/25 12:14:23;;;;;;;22.40;13.30;;;3.20;99.90;;;;;;5074612;28;20173;-67
2022/01/25 12:17:12;;;;;;;19.07;13.23;;;3.20;99.90;;;;;;5074395;28;20347;-67
2022/01/25 12:19:51;;;;;;;24.07;14.87;;;3.20;99.90;;;;;;5074328;28;20648;-67
2022/01/25 12:22:20;;;;;;;21.63;15.07;;;3.10;99.90;;;;;;5075910;28;20681;-67
2022/01/25 12:25:03;;;;;;;20.87;14.30;;;3.10;99.90;;;;;;5074281;28;20170;-67
2022/01/25 12:27:57;;;;;;;22.23;13.70;;;3.10;99.90;;;;;;5075358;28;20213;-67
2022/01/25 12:30:27;;;;;;;23.17;14.43;;;3.10;99.90;;;;;;5074142;28;20690;-66
2022/01/25 12:33:00;;;;;;;16.53;11.83;;;3.10;99.90;;;;;;5075276;28;20166;-66
2022/01/25 12:35:50;;;;;;;21.17;12.43;;;3.00;99.90;;;;;;5075583;28;20163;-66
2022/01/25 12:38:18;;;;;;;25.57;13.23;;;2.90;99.90;;;;;;5073990;28;20638;-67
2022/01/25 12:40:57;;;;;;;22.63;14.33;;;2.90;99.90;;;;;;5075424;28;20154;-66
2022/01/25 12:43:51;;;;;;;20.93;13.10;;;2.90;99.90;;;;;;5073912;28;20691;-67
2022/01/25 12:46:32;;;;;;;20.80;12.17;;;3.00;99.90;;;;;;5075188;28;20646;-66
2022/01/25 12:49:25;;;;;;;19.40;12.60;;;3.00;99.90;;;;;;5075241;28;20617;-67
2022/01/25 12:51:52;;;;;;;21.23;13.20;;;3.00;99.90;;;;;;5073718;28;20173;-66
2022/01/25 12:54:18;;;;;;;17.97;11.47;;;3.10;99.90;;;;;;5075182;28;20169;-67
2022/01/25 12:56:46;;;;;;;20.17;12.57;;;3.10;99.90;;;;;;5074690;28;20194;-67
2022/01/25 12:59:33;;;;;;;18.60;12.60;;;3.10;99.90;;;;;;5074979;28;20178;-66
2022/01/25 13:01:59;;;;;;;20.77;12.77;;;3.10;99.90;;;;;;5074809;28;20614;-67
2022/01/25 13:04:25;;;;;;;21.10;12.83;;;3.10;99.90;;;;;;5073449;28;20177;-66
2022/01/25 13:06:52;;;;;;;19.67;12.93;;;3.00;99.90;;;;;;5074462;28;20700;-66
2022/01/25 13:09:30;;;;;;;22.10;14.20;;;2.90;99.90;;;;;;5073319;28;20182;-66
2022/01/25 13:17:15;;;;;;;23.03;14.30;;;2.90;99.90;;;;;;5073703;28;20338;-66
2022/01/25 13:19:56;;;;;;;27.57;15.33;;;2.90;99.90;;;;;;5074304;28;20245;-64
2022/01/25 13:22:25;;;;;;;22.10;14.20;;;2.90;99.90;;;;;;5074646;28;20165;-64
2022/01/25 13:25:00;;;;;;;25.43;14.07;;;2.90;99.90;;;;;;5072921;28;20189;-63
2022/01/25 13:27:34;;;;;;;23.13;14.03;;;2.90;99.90;;;;;;5073977;28;20224;-64
2022/01/25 13:32:51;;;;;;;22.27;13.43;;;2.90;99.90;;;;;;5074642;28;20219;-63
2022/01/25 13:35:27;;;;;;;25.17;14.83;;;2.90;99.90;;;;;;5074358;28;20607;-64
2022/01/25 13:38:08;;;;;;;29.87;14.87;;;2.90;99.90;;;;;;5074502;28;20193;-63
2022/01/25 13:40:47;;;;;;;23.60;14.27;;;3.00;99.90;;;;;;5073095;28;20186;-64
2022/01/25 13:46:23;;;;;;;26.83;14.20;;;3.10;99.90;;;;;;5073771;28;20297;-64
2022/01/25 13:48:56;;;;;;;23.53;14.60;;;3.10;99.90;;;;;;5073785;28;20281;-64
2022/01/25 13:51:28;;;;;;;21.90;13.80;;;3.10;99.90;;;;;;5073830;28;20204;-64
2022/01/25 13:53:57;;;;;;;20.63;13.43;;;3.10;99.90;;;;;;5073852;28;20170;-64
2022/01/25 13:56:28;;;;;;;23.87;13.53;;;3.10;99.90;;;;;;5073939;28;20685;-64
2022/01/25 13:58:55;;;;;;;23.10;13.77;;;3.10;99.90;;;;;;5073933;28;20560;-64
2022/01/25 14:01:22;;;;;;;19.57;13.60;;;3.00;99.90;;;;;;5073877;28;20200;-64
2022/01/25 14:04:03;;;;;;;28.53;14.57;;;3.00;99.90;;;;;;5074143;28;20165;-64
2022/01/25 14:06:35;;;;;;;25.57;15.60;;;2.90;99.90;;;;;;5073903;28;20216;-64
2022/01/25 14:09:06;;;;;;;24.93;15.33;;;2.80;99.90;;;;;;5072203;28;20673;-63
2022/01/25 14:25:28;;;;;;;24.17;14.43;;;2.90;99.90;;;;;;5073357;28;20160;-64
2022/01/25 14:27:57;;;;;;;28.53;18.60;;;2.90;99.90;;;;;;5072757;28;20217;-64
2022/01/25 14:30:22;;;;;;;26.23;16.00;;;3.00;99.90;;;;;;5073562;28;20223;-64
2022/01/25 14:33:12;;;;;;;25.00;15.87;;;3.00;99.90;;;;;;5073271;28;20181;-63
2022/01/25 14:35:55;;;;;;;27.93;15.50;;;3.00;99.90;;;;;;5073564;28;20154;-63
2022/01/25 14:38:22;;;;;;;24.37;14.63;;;3.00;99.90;;;;;;5073712;28;20629;-64
2022/01/25 14:40:55;;;;;;;24.97;14.37;;;2.90;99.90;;;;;;5072235;28;20185;-64
2022/01/25 14:43:42;;;;;;;29.47;15.77;;;2.90;99.90;;;;;;5072167;28;20184;-64
2022/01/25 14:46:13;;;;;;;25.10;14.67;;;2.90;99.90;;;;;;5073320;28;20190;-64
2022/01/25 14:48:43;;;;;;;22.43;15.10;;;3.00;99.90;;;;;;5073577;28;20197;-63
2022/01/25 14:51:11;;;;;;;25.77;15.40;;;3.00;99.90;;;;;;5071770;28;20213;-64
2022/01/25 14:53:52;;;;;;;23.20;14.43;;;3.00;99.90;;;;;;5073389;28;20170;-64
2022/01/25 14:56:18;;;;;;;25.57;15.80;;;3.00;99.90;;;;;;5073536;28;20185;-64
2022/01/25 15:01:20;;;;;;;21.20;14.27;;;3.10;99.90;;;;;;5073337;28;20537;-63
2022/01/25 15:03:47;;;;;;;30.93;16.03;;;3.00;99.90;;;;;;5072956;28;20177;-64